Time;durP1;ratioP1;P1;durP2;ratioP2;P2;SDS_P1;SDS_P2;PMS_P1;PMS_P2;Temp;Humidity;BMP_temperature;BMP_pressure;BME280_temperature;BME280_humidity;BME280_pressure;Samples;Min_cycle;Max_cycle;Signal;HPM_P1;HPM_P2
2023/05/04 00:01:09;;;;;;;10.93;5.10;;;;;;;10.03;55.71;102178.94;5059731;28;20032;-79
2023/05/04 00:03:35;;;;;;;7.03;5.00;;;;;;;10.01;55.33;102185.88;5054376;28;20028;-79
2023/05/04 00:06:00;;;;;;;7.93;5.05;;;;;;;9.98;55.75;102178.94;5061837;28;20020;-79
2023/05/04 00:08:25;;;;;;;8.05;4.95;;;;;;;9.98;55.33;102172.88;5059196;28;20424;-78
2023/05/04 00:10:51;;;;;;;6.22;4.55;;;;;;;9.96;54.99;102166.81;5056437;28;20052;-78
2023/05/04 00:13:16;;;;;;;8.63;4.82;;;;;;;9.92;55.61;102163.34;5068413;28;20020;-79
2023/05/04 00:15:41;;;;;;;7.57;4.72;;;;;;;9.90;55.26;102164.22;5065679;28;20024;-79
2023/05/04 00:18:07;;;;;;;9.02;4.80;;;;;;;9.86;55.28;102161.63;5070486;28;20017;-78
2023/05/04 00:20:32;;;;;;;6.95;4.65;;;;;;;9.84;55.49;102152.09;5056416;28;20025;-78
2023/05/04 00:22:57;;;;;;;8.57;4.70;;;;;;;9.81;55.96;102147.75;5055304;28;20548;-78
2023/05/04 00:25:23;;;;;;;8.23;4.43;;;;;;;9.77;55.72;102147.78;5068446;28;20020;-78
2023/05/04 00:27:48;;;;;;;8.93;5.00;;;;;;;9.72;56.28;102143.44;5058067;28;20508;-78
2023/05/04 00:30:14;;;;;;;9.68;4.90;;;;;;;9.71;56.33;102153.84;5063699;28;20029;-78
2023/05/04 00:32:39;;;;;;;7.07;4.70;;;;;;;9.71;56.35;102140.88;5066501;28;20730;-78
2023/05/04 00:35:05;;;;;;;9.60;4.90;;;;;;;9.67;56.39;102139.13;5062951;28;20040;-78
2023/05/04 00:37:30;;;;;;;7.05;4.63;;;;;;;9.65;56.93;102136.50;5059810;28;20029;-78
2023/05/04 00:39:55;;;;;;;9.38;5.00;;;;;;;9.64;56.12;102133.94;5062836;28;20070;-78
2023/05/04 00:42:20;;;;;;;9.23;4.93;;;;;;;9.62;56.35;102130.47;5072889;28;20051;-78
2023/05/04 00:44:46;;;;;;;6.32;4.53;;;;;;;9.62;56.42;102126.16;5063791;28;20027;-78
2023/05/04 00:47:12;;;;;;;8.40;4.50;;;;;;;9.61;56.25;102128.72;5056312;28;20154;-78
2023/05/04 00:49:38;;;;;;;7.75;4.82;;;;;;;9.57;56.58;102125.28;5067207;28;20145;-78
2023/05/04 00:52:04;;;;;;;6.85;4.75;;;;;;;9.53;56.95;102123.53;5057678;28;20437;-78
2023/05/04 00:54:30;;;;;;;7.57;4.40;;;;;;;9.51;56.89;102123.56;5060785;28;20025;-78
2023/05/04 00:56:56;;;;;;;9.23;5.00;;;;;;;9.51;56.62;102114.88;5053139;28;20021;-78
2023/05/04 00:59:21;;;;;;;9.80;5.18;;;;;;;9.49;56.93;102112.28;5068119;28;20063;-78
2023/05/04 01:01:46;;;;;;;7.38;4.45;;;;;;;9.48;56.79;102114.91;5054562;28;20032;-78
2023/05/04 01:04:13;;;;;;;6.75;4.63;;;;;;;9.45;57.00;102114.91;5055419;28;20078;-78
2023/05/04 01:06:38;;;;;;;8.25;4.45;;;;;;;9.43;57.31;102114.88;5054341;28;20159;-78
2023/05/04 01:09:25;;;;;;;6.47;4.75;;;;;;;9.39;57.07;102107.97;5057836;28;20549;-78
2023/05/04 01:12:07;;;;;;;7.20;4.88;;;;;;;9.38;56.71;102101.06;5053927;28;20037;-78
2023/05/04 01:14:33;;;;;;;8.20;4.90;;;;;;;9.34;57.51;102102.75;5064224;28;20046;-78
2023/05/04 01:17:04;;;;;;;8.35;4.70;;;;;;;9.29;57.57;102104.53;5067147;28;20082;-78
2023/05/04 01:19:30;;;;;;;8.57;5.15;;;;;;;9.29;57.64;102106.22;5067316;28;20059;-78
2023/05/04 01:21:56;;;;;;;7.68;4.60;;;;;;;9.25;58.32;102103.63;5066734;28;20074;-78
2023/05/04 01:24:22;;;;;;;8.23;4.75;;;;;;;9.23;58.06;102102.75;5058639;28;20028;-78
2023/05/04 01:26:54;;;;;;;8.07;4.90;;;;;;;9.21;57.86;102091.53;5065359;28;20048;-78
2023/05/04 01:29:42;;;;;;;;;;;;;;;9.23;55.88;102101.91;5063730;28;20024;-78
2023/05/04 01:32:10;;;;;;;7.20;4.68;;;;;;;9.16;58.10;102094.97;5055948;28;19912;-78
2023/05/04 01:34:38;;;;;;;7.75;4.97;;;;;;;9.11;58.23;102092.38;5060192;28;20043;-78
2023/05/04 01:37:03;;;;;;;7.93;4.40;;;;;;;9.09;58.60;102086.31;5062045;28;20025;-78
2023/05/04 01:39:29;;;;;;;6.93;4.78;;;;;;;9.05;59.23;102095.00;5061535;28;20370;-78
2023/05/04 01:41:54;;;;;;;7.55;4.60;;;;;;;9.04;58.80;102086.31;5052524;28;20021;-78
2023/05/04 01:44:19;;;;;;;7.75;4.88;;;;;;;9.01;58.87;102085.47;5059573;28;20028;-78
2023/05/04 01:46:45;;;;;;;7.45;4.18;;;;;;;8.98;59.27;102095.84;5064712;28;20488;-78
2023/05/04 01:49:10;;;;;;;8.93;4.57;;;;;;;8.95;59.10;102092.38;5072151;28;20089;-78
2023/05/04 01:51:35;;;;;;;6.57;4.60;;;;;;;8.93;59.07;102094.09;5060118;28;20021;-78
2023/05/04 01:54:00;;;;;;;7.68;4.47;;;;;;;8.89;59.47;102094.94;5052187;28;20385;-78
2023/05/04 01:56:26;;;;;;;7.35;4.63;;;;;;;8.85;59.18;102088.03;5052235;28;20017;-78
2023/05/04 01:58:51;;;;;;;7.15;4.43;;;;;;;8.84;59.39;102091.50;5066895;28;20388;-78
2023/05/04 02:01:16;;;;;;;7.13;4.65;;;;;;;8.83;59.23;102087.16;5056744;28;20025;-78
2023/05/04 02:03:41;;;;;;;7.15;4.28;;;;;;;8.79;59.54;102083.72;5055855;28;20031;-78
2023/05/04 02:06:07;;;;;;;7.90;4.78;;;;;;;8.76;59.92;102091.50;5059543;28;20032;-78
2023/05/04 02:08:32;;;;;;;8.50;4.80;;;;;;;8.73;60.12;102093.19;5053257;28;20039;-78
2023/05/04 02:10:57;;;;;;;7.40;4.60;;;;;;;8.75;60.05;102094.94;5063704;28;20040;-78
2023/05/04 02:13:23;;;;;;;7.32;4.32;;;;;;;8.71;59.89;102087.16;5070337;28;20366;-78
2023/05/04 02:15:48;;;;;;;7.75;4.63;;;;;;;8.69;60.08;102088.88;5066545;28;20039;-78
2023/05/04 02:18:13;;;;;;;8.20;4.60;;;;;;;8.68;60.43;102092.34;5060890;28;20036;-78
2023/05/04 02:20:39;;;;;;;9.05;4.80;;;;;;;8.68;60.45;102094.94;5053081;28;20029;-78
2023/05/04 02:23:04;;;;;;;7.55;4.30;;;;;;;8.66;60.75;102089.72;5067802;28;20542;-78
2023/05/04 02:25:30;;;;;;;7.45;4.88;;;;;;;8.62;60.73;102088.84;5059944;28;20431;-78
2023/05/04 02:27:55;;;;;;;7.32;4.90;;;;;;;8.62;60.36;102085.41;5057081;28;20021;-78
2023/05/04 02:30:20;;;;;;;8.45;4.82;;;;;;;8.58;60.90;102079.31;5052561;28;20024;-78
2023/05/04 02:32:45;;;;;;;6.63;4.50;;;;;;;8.55;60.81;102079.31;5054347;28;20028;-78
2023/05/04 02:35:11;;;;;;;7.18;4.68;;;;;;;8.53;61.04;102077.59;5067498;28;20035;-78
2023/05/04 02:37:37;;;;;;;8.88;4.50;;;;;;;8.50;61.01;102075.84;5056512;28;20449;-78
2023/05/04 02:40:03;;;;;;;7.47;4.40;;;;;;;8.46;60.96;102072.34;5061801;28;20017;-78
2023/05/04 02:42:28;;;;;;;6.82;4.55;;;;;;;8.45;61.14;102070.63;5052734;28;20474;-78
2023/05/04 02:44:53;;;;;;;7.47;4.57;;;;;;;8.44;61.19;102068.00;5060979;28;20052;-78
2023/05/04 02:47:18;;;;;;;7.45;4.72;;;;;;;8.42;61.25;102069.72;5063896;28;20056;-78
2023/05/04 02:49:44;;;;;;;6.53;4.68;;;;;;;8.39;61.65;102074.91;5067560;28;20033;-78
2023/05/04 02:52:09;;;;;;;6.70;4.88;;;;;;;8.34;61.72;102070.59;5062616;28;20029;-78
2023/05/04 02:54:34;;;;;;;8.23;4.75;;;;;;;8.32;61.69;102069.72;5055136;28;20119;-78
2023/05/04 02:57:00;;;;;;;8.30;4.80;;;;;;;8.28;61.57;102067.97;5069210;28;20479;-78
2023/05/04 02:59:25;;;;;;;8.10;4.88;;;;;;;8.26;61.76;102074.03;5060734;28;20044;-78
2023/05/04 03:01:51;;;;;;;7.93;4.95;;;;;;;8.20;62.45;102069.66;5062522;28;20427;-78
2023/05/04 03:04:16;;;;;;;7.82;4.72;;;;;;;8.17;62.13;102065.31;5066983;28;20059;-78
2023/05/04 03:06:41;;;;;;;7.00;5.05;;;;;;;8.14;62.34;102065.31;5068309;28;20040;-78
2023/05/04 03:09:07;;;;;;;8.18;5.10;;;;;;;8.10;62.79;102066.19;5063521;28;20104;-78
2023/05/04 03:11:32;;;;;;;7.28;4.90;;;;;;;8.09;62.58;102066.16;5059674;28;20048;-78
2023/05/04 03:13:58;;;;;;;7.15;4.97;;;;;;;8.07;62.75;102073.06;5066908;28;20024;-79
2023/05/04 03:16:23;;;;;;;7.82;4.80;;;;;;;8.04;62.43;102059.22;5055799;28;20127;-78
2023/05/04 03:18:48;;;;;;;7.10;4.63;;;;;;;8.05;62.67;102060.09;5060339;28;20081;-78
2023/05/04 03:21:14;;;;;;;8.13;4.97;;;;;;;8.00;62.99;102061.78;5061685;28;20024;-78
2023/05/04 03:23:39;;;;;;;10.90;5.20;;;;;;;7.97;63.15;102062.66;5057376;28;20401;-78
2023/05/04 03:26:05;;;;;;;6.80;5.00;;;;;;;7.95;63.20;102064.38;5059542;28;20342;-78
2023/05/04 03:28:30;;;;;;;7.50;4.93;;;;;;;7.95;63.32;102063.50;5071857;28;20370;-78
2023/05/04 03:30:55;;;;;;;7.07;4.70;;;;;;;7.95;63.18;102061.78;5060665;28;20099;-78
2023/05/04 03:33:20;;;;;;;7.57;5.03;;;;;;;7.89;63.37;102052.25;5060734;28;20071;-77
2023/05/04 03:35:46;;;;;;;7.05;4.90;;;;;;;7.86;63.39;102056.53;5055845;28;20029;-78
2023/05/04 03:38:11;;;;;;;7.85;5.15;;;;;;;7.85;63.52;102055.69;5073699;28;20024;-78
2023/05/04 03:40:36;;;;;;;8.73;5.32;;;;;;;7.85;63.89;102057.44;5074825;28;20036;-78
2023/05/04 03:43:02;;;;;;;7.43;4.75;;;;;;;7.81;63.40;102050.50;5074603;28;20028;-78
2023/05/04 03:45:27;;;;;;;9.15;5.35;;;;;;;7.78;63.92;102045.28;5055722;28;20457;-78
2023/05/04 03:47:55;;;;;;;7.35;4.90;;;;;;;7.74;64.08;102045.25;5055787;28;20027;-78
2023/05/04 03:50:21;;;;;;;6.57;4.65;;;;;;;7.71;64.07;102040.06;5061597;28;20031;-78
2023/05/04 03:52:47;;;;;;;9.13;5.18;;;;;;;7.69;64.05;102034.00;5059177;28;20032;-78
2023/05/04 03:55:12;;;;;;;8.35;5.20;;;;;;;7.65;64.49;102034.84;5068830;28;20036;-78
2023/05/04 03:57:37;;;;;;;7.32;4.95;;;;;;;7.64;64.63;102030.53;5064265;28;20040;-78
2023/05/04 04:00:03;;;;;;;6.47;4.88;;;;;;;7.62;64.74;102034.84;5058001;28;20028;-78
2023/05/04 04:02:28;;;;;;;7.88;5.03;;;;;;;7.60;64.81;102037.41;5068610;28;20021;-78
2023/05/04 04:04:54;;;;;;;11.07;5.05;;;;;;;7.59;64.96;102034.81;5059812;28;20017;-79
2023/05/04 04:07:19;;;;;;;7.65;5.43;;;;;;;7.58;64.94;102033.06;5067204;28;20033;-78
2023/05/04 04:09:45;;;;;;;8.30;5.15;;;;;;;7.55;64.89;102028.75;5058977;28;20044;-78
2023/05/04 04:12:10;;;;;;;8.95;5.28;;;;;;;7.53;64.83;102027.00;5064956;28;20481;-78
2023/05/04 04:14:35;;;;;;;6.53;4.70;;;;;;;7.53;65.13;102030.47;5066164;28;20498;-78
2023/05/04 04:17:01;;;;;;;7.93;4.78;;;;;;;7.52;65.36;102033.91;5069059;28;20083;-78
2023/05/04 04:19:26;;;;;;;9.73;5.50;;;;;;;7.53;65.31;102037.34;5056563;28;20021;-78
2023/05/04 04:21:51;;;;;;;7.22;4.90;;;;;;;7.52;64.95;102035.63;5065512;28;20051;-78
2023/05/04 04:24:16;;;;;;;8.68;5.38;;;;;;;7.53;65.42;102032.19;5071064;28;20028;-78
2023/05/04 04:26:42;;;;;;;9.15;5.60;;;;;;;7.51;65.29;102031.31;5057893;28;20420;-78
2023/05/04 04:29:07;;;;;;;10.50;4.93;;;;;;;7.52;65.63;102030.44;5063900;28;20025;-78
2023/05/04 04:31:32;;;;;;;7.53;5.20;;;;;;;7.52;65.64;102025.25;5057757;28;20472;-78
2023/05/04 04:33:58;;;;;;;8.07;5.07;;;;;;;7.51;65.83;102026.16;5068832;28;20025;-78
2023/05/04 04:36:23;;;;;;;7.32;5.07;;;;;;;7.53;65.74;102019.22;5055847;28;20028;-78
2023/05/04 04:38:48;;;;;;;10.52;5.40;;;;;;;7.54;65.84;102015.78;5057157;28;20046;-78
2023/05/04 04:41:14;;;;;;;7.97;5.28;;;;;;;7.55;65.91;102022.69;5062707;28;20055;-78
2023/05/04 04:43:39;;;;;;;7.45;5.15;;;;;;;7.55;66.00;102018.41;5069128;28;20381;-78
2023/05/04 04:46:04;;;;;;;8.18;4.85;;;;;;;7.58;66.06;102022.72;5064557;28;20073;-78
2023/05/04 04:48:30;;;;;;;8.02;5.03;;;;;;;7.57;66.39;102016.69;5070730;28;20103;-78
2023/05/04 04:50:56;;;;;;;8.63;5.53;;;;;;;7.60;66.05;102015.81;5056737;28;20493;-78
2023/05/04 04:53:21;;;;;;;9.85;5.18;;;;;;;7.61;66.42;102012.38;5063592;28;20457;-78
2023/05/04 04:55:47;;;;;;;8.05;5.00;;;;;;;7.63;66.36;102015.84;5060580;28;20025;-78
2023/05/04 04:58:12;;;;;;;8.50;5.15;;;;;;;7.67;66.04;102016.72;5063124;28;20024;-78
2023/05/04 05:00:37;;;;;;;11.23;5.55;;;;;;;7.70;65.85;102015.00;5067660;28;20499;-77
2023/05/04 05:03:03;;;;;;;7.10;4.75;;;;;;;7.74;66.18;102011.59;5057654;28;20029;-78
2023/05/04 05:05:29;;;;;;;8.40;5.07;;;;;;;7.79;65.90;102010.75;5054487;28;20063;-78
2023/05/04 05:07:54;;;;;;;7.00;5.20;;;;;;;7.82;66.28;102010.78;5060924;28;20025;-78
2023/05/04 05:10:22;;;;;;;8.18;4.82;;;;;;;7.84;66.42;102012.50;5058327;28;20045;-77
2023/05/04 05:12:52;;;;;;;9.13;6.00;;;;;;;7.86;65.91;102017.66;5055228;28;20028;-77
2023/05/04 05:15:17;;;;;;;7.05;4.90;;;;;;;7.88;66.42;102016.84;5070574;28;20024;-78
2023/05/04 05:17:42;;;;;;;6.85;4.70;;;;;;;7.92;66.44;102016.84;5066625;28;20028;-78
2023/05/04 05:20:11;;;;;;;7.07;5.00;;;;;;;7.97;65.98;102018.59;5053630;28;20031;-78
2023/05/04 05:22:37;;;;;;;7.32;4.88;;;;;;;8.01;66.06;102017.75;5052990;28;20094;-78
2023/05/04 05:25:03;;;;;;;9.20;4.53;;;;;;;8.09;66.26;102016.91;5053257;28;20021;-78
2023/05/04 05:27:29;;;;;;;8.68;5.15;;;;;;;8.13;66.16;102016.06;5053166;28;20020;-78
2023/05/04 05:29:54;;;;;;;8.48;5.28;;;;;;;8.19;66.13;102018.69;5053222;28;20131;-78
2023/05/04 05:32:19;;;;;;;8.88;4.82;;;;;;;8.25;65.76;102020.44;5065391;28;20499;-78
2023/05/04 05:34:44;;;;;;;8.10;4.93;;;;;;;8.27;65.64;102016.97;5071360;28;20036;-78
2023/05/04 05:37:10;;;;;;;7.57;4.90;;;;;;;8.32;65.55;102017.84;5068326;28;20028;-78
2023/05/04 05:39:35;;;;;;;7.78;5.00;;;;;;;8.37;65.95;102019.59;5061702;28;20025;-78
2023/05/04 05:42:02;;;;;;;9.43;5.05;;;;;;;8.43;65.88;102014.41;5071523;28;20388;-78
2023/05/04 05:44:27;;;;;;;9.88;5.55;;;;;;;8.48;66.56;102015.34;5067884;28;20021;-78
2023/05/04 05:46:53;;;;;;;11.60;5.63;;;;;;;8.55;66.59;102014.47;5053559;28;20442;-78
2023/05/04 05:49:18;;;;;;;8.50;5.50;;;;;;;8.62;66.33;102016.22;5067256;28;20419;-78
2023/05/04 05:51:43;;;;;;;7.28;5.55;;;;;;;8.69;65.70;102011.91;5072411;28;20022;-78
2023/05/04 05:54:09;;;;;;;11.77;5.15;;;;;;;8.77;65.10;102019.69;5072296;28;20021;-78
2023/05/04 05:56:34;;;;;;;7.97;5.22;;;;;;;8.85;66.21;102011.91;5058520;28;20020;-78
2023/05/04 05:58:59;;;;;;;8.10;4.90;;;;;;;8.92;64.96;102014.50;5058124;28;20016;-78
2023/05/04 06:01:25;;;;;;;8.10;5.30;;;;;;;9.01;65.27;102018.81;5060091;28;20028;-78
2023/05/04 06:03:50;;;;;;;7.07;4.78;;;;;;;9.07;65.17;102008.44;5061031;28;20032;-78
2023/05/04 06:06:16;;;;;;;9.10;4.85;;;;;;;9.11;64.31;102004.13;5058717;28;20446;-78
2023/05/04 06:08:41;;;;;;;9.98;4.88;;;;;;;9.17;64.98;102008.44;5063943;28;20024;-78
2023/05/04 06:11:06;;;;;;;8.65;4.72;;;;;;;9.24;64.77;102011.00;5056697;28;20045;-78
2023/05/04 06:13:32;;;;;;;6.35;4.60;;;;;;;9.30;64.97;101999.78;5061432;28;20033;-78
2023/05/04 06:15:57;;;;;;;10.55;4.70;;;;;;;9.35;64.06;101997.16;5063414;28;20469;-78
2023/05/04 06:18:22;;;;;;;9.00;4.88;;;;;;;9.40;63.94;101991.09;5062665;28;20055;-78
2023/05/04 06:20:47;;;;;;;8.18;4.75;;;;;;;9.46;64.07;101995.41;5069281;28;20037;-78
2023/05/04 06:23:14;;;;;;;7.55;4.55;;;;;;;9.51;64.41;101983.28;5063081;28;20099;-78
2023/05/04 06:25:40;;;;;;;10.75;5.25;;;;;;;9.60;63.86;101978.91;5062396;28;20053;-78
2023/05/04 06:28:06;;;;;;;6.32;4.57;;;;;;;9.66;64.40;101981.50;5060729;28;20102;-77
2023/05/04 06:30:31;;;;;;;6.70;4.53;;;;;;;9.71;63.57;101979.75;5055034;28;20017;-78
2023/05/04 06:32:56;;;;;;;6.97;4.47;;;;;;;9.78;63.84;101971.03;5058242;28;20028;-78
2023/05/04 06:35:22;;;;;;;7.57;4.38;;;;;;;9.85;62.96;101977.06;5057680;28;20070;-78
2023/05/04 06:37:47;;;;;;;8.80;5.10;;;;;;;9.94;64.24;101977.03;5054864;28;20103;-78
2023/05/04 06:40:14;;;;;;;7.13;4.65;;;;;;;10.00;63.77;101970.94;5059312;28;20421;-77
2023/05/04 06:42:39;;;;;;;7.47;4.78;;;;;;;10.09;62.93;101967.44;5057647;28;20400;-78
2023/05/04 06:45:05;;;;;;;7.97;4.90;;;;;;;10.14;63.64;101969.13;5057549;28;20020;-78
2023/05/04 06:47:34;;;;;;;7.78;4.03;;;;;;;10.23;63.17;101962.16;5060211;28;20025;-78
2023/05/04 06:49:59;;;;;;;6.60;4.60;;;;;;;10.31;63.41;101962.97;5058029;28;20024;-78
2023/05/04 06:52:24;;;;;;;8.00;4.80;;;;;;;10.38;64.29;101966.38;5053407;28;20024;-78
2023/05/04 06:54:50;;;;;;;7.30;4.55;;;;;;;10.45;62.85;101965.50;5062215;28;20064;-78
2023/05/04 06:57:15;;;;;;;6.93;4.72;;;;;;;10.51;63.71;101970.66;5083154;28;20504;-78
2023/05/04 06:59:40;;;;;;;8.57;4.30;;;;;;;10.57;62.40;101967.16;5059847;28;20504;-79
2023/05/04 07:02:06;;;;;;;8.82;4.10;;;;;;;10.61;62.30;101955.84;5061274;28;20024;-78
2023/05/04 07:04:31;;;;;;;7.40;4.30;;;;;;;10.66;62.41;101961.88;5061472;28;20029;-78
2023/05/04 07:06:56;;;;;;;6.28;4.50;;;;;;;10.70;62.17;101950.56;5059656;28;20043;-78
2023/05/04 07:09:22;;;;;;;6.05;4.20;;;;;;;10.76;62.72;101953.09;5060577;28;20083;-78
2023/05/04 07:11:47;;;;;;;7.10;4.55;;;;;;;10.83;62.13;101951.34;5058824;28;20063;-78
2023/05/04 07:14:13;;;;;;;6.75;4.20;;;;;;;10.90;62.39;101949.53;5056317;28;20104;-79
2023/05/04 07:16:38;;;;;;;9.48;4.15;;;;;;;10.97;60.45;101948.59;5055461;28;20114;-78
2023/05/04 07:19:04;;;;;;;7.50;4.13;;;;;;;11.04;63.02;101945.06;5058543;28;20112;-79
2023/05/04 07:21:29;;;;;;;7.47;4.03;;;;;;;11.13;62.08;101940.63;5059779;28;20496;-79
2023/05/04 07:23:55;;;;;;;7.53;4.00;;;;;;;11.20;60.78;101931.88;5064664;28;20008;-78
2023/05/04 07:26:21;;;;;;;5.80;3.83;;;;;;;11.27;61.45;101933.53;5061395;28;20708;-79
2023/05/04 07:28:46;;;;;;;8.20;4.40;;;;;;;11.35;60.84;101918.66;5058786;28;20111;-79
2023/05/04 07:31:13;;;;;;;6.50;3.80;;;;;;;11.43;60.40;101923.78;5061680;28;20125;-78
2023/05/04 07:33:38;;;;;;;8.13;4.20;;;;;;;11.51;60.88;101927.19;5061479;28;20468;-78
2023/05/04 07:36:04;;;;;;;6.75;4.10;;;;;;;11.61;60.21;101922.72;5069357;28;20032;-78
2023/05/04 07:38:30;;;;;;;6.72;3.72;;;;;;;11.76;60.09;101926.00;5067692;28;20503;-78
2023/05/04 07:40:55;;;;;;;7.03;3.90;;;;;;;11.86;59.62;101922.38;5062798;28;20035;-78
2023/05/04 07:43:21;;;;;;;6.38;3.63;;;;;;;11.98;60.79;101927.44;5070423;28;20039;-78
2023/05/04 07:45:46;;;;;;;8.63;4.38;;;;;;;12.05;57.84;101909.13;5065389;28;20024;-78
2023/05/04 07:48:12;;;;;;;5.10;4.18;;;;;;;12.12;61.49;101914.22;5069929;28;20156;-78
2023/05/04 07:50:37;;;;;;;7.47;4.25;;;;;;;12.24;58.63;101913.19;5069458;28;20467;-78
2023/05/04 07:53:02;;;;;;;6.85;4.05;;;;;;;12.34;59.29;101913.88;5070901;28;20144;-78
2023/05/04 07:55:29;;;;;;;7.15;4.47;;;;;;;12.42;57.63;101906.78;5070361;28;20032;-78
2023/05/04 07:57:55;;;;;;;5.68;3.97;;;;;;;12.52;57.97;101907.50;5069019;28;20024;-78
2023/05/04 08:00:20;;;;;;;7.07;3.92;;;;;;;12.62;57.52;101902.97;5060526;28;20055;-78
2023/05/04 08:02:45;;;;;;;5.90;3.53;;;;;;;12.76;58.44;101905.38;5065513;28;20050;-78
2023/05/04 08:05:11;;;;;;;5.43;3.55;;;;;;;12.89;56.83;101904.25;5069616;28;20396;-78
2023/05/04 08:07:36;;;;;;;6.97;3.75;;;;;;;13.00;57.42;101903.16;5067403;28;20040;-78
2023/05/04 08:10:02;;;;;;;7.68;4.00;;;;;;;13.09;56.67;101897.78;5063411;28;20547;-77
2023/05/04 08:12:27;;;;;;;9.68;4.00;;;;;;;13.18;57.15;101894.97;5065585;28;20028;-78
2023/05/04 08:14:53;;;;;;;5.88;3.50;;;;;;;13.30;56.38;101898.25;5073491;28;20085;-78
2023/05/04 08:17:18;;;;;;;4.82;3.47;;;;;;;13.39;54.95;101905.91;5077122;28;20033;-78
2023/05/04 08:19:43;;;;;;;7.88;3.50;;;;;;;13.49;56.04;101896.16;5067906;28;20028;-77
2023/05/04 08:22:09;;;;;;;7.10;3.30;;;;;;;13.59;55.77;101904.66;5063322;28;20086;-77
2023/05/04 08:24:34;;;;;;;5.55;3.80;;;;;;;13.67;55.24;101894.88;5063065;28;20269;-77
2023/05/04 08:27:01;;;;;;;4.43;3.05;;;;;;;13.76;58.17;101889.47;5063131;28;20031;-77
2023/05/04 08:29:27;;;;;;;5.57;3.55;;;;;;;13.83;55.44;101887.56;5064799;28;20078;-77
2023/05/04 08:31:55;;;;;;;8.30;3.90;;;;;;;13.89;54.05;101890.06;5068251;28;20466;-78
2023/05/04 08:34:21;;;;;;;7.07;3.78;;;;;;;13.94;53.73;101887.31;5063541;28;20028;-79
2023/05/04 08:36:46;;;;;;;6.60;3.88;;;;;;;14.00;52.96;101881.09;5072550;28;20032;-78
2023/05/04 08:39:12;;;;;;;5.85;3.67;;;;;;;14.03;53.15;101874.03;5071211;28;20397;-78
2023/05/04 08:41:40;;;;;;;5.32;3.80;;;;;;;14.06;53.39;101880.97;5073149;28;20063;-78
2023/05/04 08:44:10;;;;;;;8.55;3.92;;;;;;;14.10;53.65;101878.22;5075299;28;20535;-78
2023/05/04 08:46:38;;;;;;;6.63;3.80;;;;;;;14.15;53.52;101865.03;5070371;28;20032;-78
2023/05/04 08:49:03;;;;;;;6.05;3.80;;;;;;;14.23;53.22;101870.06;5066120;28;20031;-78
2023/05/04 08:51:30;;;;;;;7.07;3.90;;;;;;;14.31;52.21;101865.50;5073897;28;20036;-78
2023/05/04 08:53:57;;;;;;;5.72;3.55;;;;;;;14.40;53.84;101867.88;5071752;28;20020;-78
2023/05/04 08:56:24;;;;;;;6.72;3.72;;;;;;;14.53;55.15;101862.31;5069754;28;20108;-78
2023/05/04 08:58:51;;;;;;;6.05;3.67;;;;;;;14.65;53.09;101863.78;5065439;28;20129;-78
2023/05/04 09:01:17;;;;;;;6.90;3.92;;;;;;;14.74;54.19;101858.34;5065820;28;20029;-77
2023/05/04 09:03:46;;;;;;;9.63;3.80;;;;;;;14.85;53.39;101844.94;5071248;28;20440;-78
2023/05/04 09:06:13;;;;;;;6.68;3.40;;;;;;;14.95;51.77;101842.91;5070916;28;20028;-77
2023/05/04 09:08:38;;;;;;;7.72;4.10;;;;;;;15.00;51.46;101844.53;5074595;28;20056;-77
2023/05/04 09:11:04;;;;;;;7.65;3.92;;;;;;;15.06;52.11;101837.38;5069976;28;20139;-77
2023/05/04 09:13:30;;;;;;;7.88;4.22;;;;;;;15.11;52.09;101825.88;5069893;28;20025;-77
2023/05/04 09:15:57;;;;;;;7.93;4.45;;;;;;;15.20;51.13;101827.34;5065686;28;21167;-77
2023/05/04 09:18:23;;;;;;;8.57;3.80;;;;;;;15.25;52.05;101816.75;5071944;28;20028;-77
2023/05/04 09:20:48;;;;;;;8.52;3.90;;;;;;;15.28;50.73;101816.66;5068222;28;20417;-77
2023/05/04 09:23:15;;;;;;;6.75;3.97;;;;;;;15.29;50.44;101811.34;5071050;28;20093;-77
2023/05/04 09:25:47;;;;;;;7.68;4.25;;;;;;;15.31;50.37;101812.16;5071741;28;20522;-78
2023/05/04 09:28:13;;;;;;;7.35;3.65;;;;;;;15.37;51.15;101820.75;5069153;28;20456;-77
2023/05/04 09:30:38;;;;;;;7.43;4.13;;;;;;;15.44;52.89;101819.66;5073374;28;20489;-77
2023/05/04 09:33:04;;;;;;;6.93;4.20;;;;;;;15.52;52.22;101820.28;5070560;28;20024;-77
2023/05/04 09:35:29;;;;;;;6.78;4.10;;;;;;;15.56;50.66;101824.50;5074869;28;20042;-78
2023/05/04 09:37:56;;;;;;;6.47;3.60;;;;;;;15.61;52.36;101820.00;5066906;28;20234;-78
2023/05/04 09:40:34;;;;;;;7.15;4.30;;;;;;;15.68;52.19;101809.31;5069578;28;20080;-77
2023/05/04 09:43:00;;;;;;;8.10;4.32;;;;;;;15.76;50.60;101807.28;5065006;28;20504;-78
2023/05/04 09:45:36;;;;;;;5.82;3.90;;;;;;;15.83;53.14;101802.69;5066245;28;20797;-77
2023/05/04 09:48:15;;;;;;;7.15;4.43;;;;;;;15.92;52.58;101803.28;5064809;28;20585;-78
2023/05/04 09:50:53;;;;;;;7.97;4.20;;;;;;;15.98;50.82;101796.97;5064845;28;20113;-78
2023/05/04 09:53:24;;;;;;;9.63;4.63;;;;;;;16.06;50.24;101799.34;5067093;28;20704;-78
2023/05/04 09:56:12;;;;;;;7.73;4.07;;;;;;;16.12;51.28;101793.06;5069510;28;20047;-77
2023/05/04 09:58:39;;;;;;;8.30;4.20;;;;;;;16.15;51.77;101793.78;5070000;28;20065;-77
2023/05/04 10:01:05;;;;;;;6.25;3.80;;;;;;;16.20;50.92;101791.88;5065618;28;20388;-78
2023/05/04 10:03:31;;;;;;;7.60;4.50;;;;;;;16.27;50.62;101792.53;5068180;28;20031;-77
2023/05/04 10:06:03;;;;;;;6.80;4.65;;;;;;;16.34;52.00;101787.91;5066574;28;20064;-77
2023/05/04 10:08:28;;;;;;;6.50;4.57;;;;;;;16.42;49.86;101785.84;5069289;28;20175;-77
2023/05/04 10:10:54;;;;;;;7.78;4.30;;;;;;;16.47;49.14;101778.69;5065476;28;20238;-77
2023/05/04 10:13:19;;;;;;;8.73;4.65;;;;;;;16.57;50.64;101773.13;5068715;28;20051;-77
2023/05/04 10:16:08;;;;;;;7.07;4.43;;;;;;;16.67;50.16;101774.50;5066084;28;20125;-78
2023/05/04 10:18:56;;;;;;;10.52;4.57;;;;;;;16.76;51.37;101768.03;5066681;28;20054;-78
2023/05/04 10:21:37;;;;;;;5.45;3.97;;;;;;;16.80;49.72;101754.72;5066161;28;20463;-79
2023/05/04 10:24:05;;;;;;;7.45;4.82;;;;;;;16.84;50.26;101756.31;5071685;28;20160;-78
2023/05/04 10:26:35;;;;;;;6.25;4.22;;;;;;;16.90;49.96;101757.03;5067383;28;20040;-77
2023/05/04 10:29:34;;;;;;;11.15;4.55;;;;;;;16.98;50.36;101741.84;5065234;28;20476;-78
2023/05/04 10:32:00;;;;;;;6.25;4.75;;;;;;;17.03;50.28;101739.03;5058487;28;20046;-77
2023/05/04 10:34:28;;;;;;;5.63;4.15;;;;;;;17.07;48.83;101735.38;5071892;28;20093;-78
2023/05/04 10:36:54;;;;;;;5.25;4.10;;;;;;;17.16;51.72;101728.88;5073719;28;20036;-77
2023/05/04 10:39:22;;;;;;;5.60;4.00;;;;;;;17.26;50.80;101735.47;5075336;28;20085;-78
2023/05/04 10:41:58;;;;;;;6.47;4.10;;;;;;;17.36;49.46;101721.06;5071162;28;20701;-77
2023/05/04 10:44:23;;;;;;;5.60;4.22;;;;;;;17.39;48.70;101704.28;5069262;28;20473;-78
2023/05/04 10:47:04;;;;;;;7.00;4.50;;;;;;;17.43;48.86;101706.72;5064907;28;20043;-78
2023/05/04 10:49:29;;;;;;;7.07;4.25;;;;;;;17.53;48.91;101701.09;5065720;28;20424;-77
2023/05/04 10:52:04;;;;;;;8.05;3.92;;;;;;;17.63;48.79;101701.59;5067085;28;20507;-77
2023/05/04 10:54:30;;;;;;;7.97;4.22;;;;;;;17.64;47.51;101685.72;5068619;28;20067;-78
2023/05/04 10:57:06;;;;;;;6.20;4.30;;;;;;;17.65;47.54;101682.16;5068367;28;20117;-77
2023/05/04 10:59:32;;;;;;;6.40;4.28;;;;;;;17.69;46.63;101681.13;5059727;28;20031;-77
2023/05/04 11:01:59;;;;;;;7.05;4.22;;;;;;;17.71;46.15;101663.50;5068274;28;20024;-78
2023/05/04 11:04:25;;;;;;;6.75;4.40;;;;;;;17.73;43.99;101666.06;5068550;28;20032;-78
2023/05/04 11:07:05;;;;;;;6.32;4.35;;;;;;;17.74;46.64;101658.09;5071499;28;20058;-78
2023/05/04 11:09:43;;;;;;;7.15;4.55;;;;;;;17.79;46.60;101655.28;5063465;28;20114;-77
2023/05/04 11:12:09;;;;;;;6.30;4.20;;;;;;;17.84;47.10;101653.31;5064960;28;20040;-78
2023/05/04 11:14:40;;;;;;;6.30;4.57;;;;;;;17.89;46.03;101639.94;5059423;28;20035;-78
2023/05/04 11:17:10;;;;;;;6.38;4.30;;;;;;;17.96;46.14;101640.50;5060058;28;20442;-78
2023/05/04 11:19:45;;;;;;;7.70;4.22;;;;;;;18.01;43.61;101639.41;5064780;28;20035;-78
2023/05/04 11:22:12;;;;;;;7.50;4.00;;;;;;;18.08;43.71;101641.78;5056155;28;20072;-77
2023/05/04 11:24:43;;;;;;;7.05;4.40;;;;;;;18.14;43.95;101633.59;5053384;28;20108;-77
2023/05/04 11:27:19;;;;;;;6.47;4.40;;;;;;;18.23;43.64;101638.47;5056913;28;20024;-78